createdAt,value
2022-12-18T00:01:21.273Z,1.87
2022-12-18T00:03:48.724Z,1.87
2022-12-18T00:06:16.376Z,1.84
2022-12-18T00:08:44.339Z,1.84
2022-12-18T00:11:17.042Z,1.85
2022-12-18T00:13:44.513Z,1.87
2022-12-18T00:16:14.359Z,1.87
2022-12-18T00:18:42.222Z,1.93
2022-12-18T00:21:11.656Z,1.92
2022-12-18T00:23:39.800Z,1.90
2022-12-18T00:26:10.411Z,1.88
2022-12-18T00:28:37.273Z,1.90
2022-12-18T00:31:07.109Z,1.90
2022-12-18T00:33:34.922Z,1.91
2022-12-18T00:36:07.385Z,1.91
2022-12-18T00:38:35.277Z,1.91
2022-12-18T00:41:02.650Z,1.92
2022-12-18T00:43:29.450Z,1.92
2022-12-18T00:45:56.568Z,1.90
2022-12-18T00:48:23.476Z,1.90
2022-12-18T00:50:50.682Z,1.92
2022-12-18T00:53:17.674Z,1.91
2022-12-18T00:55:45.249Z,1.87
2022-12-18T00:58:13.532Z,1.88
2022-12-18T01:00:40.370Z,1.90
2022-12-18T01:03:13.575Z,1.91
2022-12-18T01:05:42.944Z,1.88
2022-12-18T01:08:09.912Z,1.90
2022-12-18T01:10:36.724Z,1.86
2022-12-18T01:13:03.839Z,1.86
2022-12-18T01:15:30.799Z,1.87
2022-12-18T01:17:57.845Z,1.86
2022-12-18T01:20:27.396Z,1.85
2022-12-18T01:22:54.257Z,1.85
2022-12-18T01:25:21.216Z,1.84
2022-12-18T01:27:48.092Z,1.83
2022-12-18T01:30:14.962Z,1.83
2022-12-18T01:32:42.060Z,1.83
2022-12-18T01:35:09.343Z,1.83
2022-12-18T01:37:36.246Z,1.83
2022-12-18T01:40:03.176Z,1.83
2022-12-18T01:42:30.113Z,1.83
2022-12-18T01:45:07.516Z,1.84
2022-12-18T01:47:54.487Z,1.79
2022-12-18T01:50:43.124Z,1.78
2022-12-18T01:53:23.665Z,1.77
2022-12-18T01:55:52.644Z,1.80
2022-12-18T01:58:23.098Z,1.77
2022-12-18T02:00:50.215Z,1.75
2022-12-18T02:03:20.169Z,1.75
2022-12-18T02:05:56.602Z,1.77
2022-12-18T02:08:26.725Z,1.71
2022-12-18T02:11:18.929Z,1.72
2022-12-18T02:13:58.840Z,1.72
2022-12-18T02:16:53.366Z,1.71
2022-12-18T02:19:53.177Z,1.70
2022-12-18T02:22:38.709Z,1.71
2022-12-18T02:25:14.896Z,1.71
2022-12-18T02:27:45.009Z,1.71
2022-12-18T02:30:12.499Z,1.70
2022-12-18T02:32:43.161Z,1.68
2022-12-18T02:35:15.942Z,1.69
2022-12-18T02:37:46.243Z,1.68
2022-12-18T02:40:15.276Z,1.68
2022-12-18T02:42:42.177Z,1.65
2022-12-18T02:45:11.407Z,1.63
2022-12-18T02:47:43.178Z,1.61
2022-12-18T02:50:31.767Z,1.64
2022-12-18T02:53:17.404Z,1.62
2022-12-18T02:56:13.126Z,1.64
2022-12-18T02:59:00.932Z,1.63
2022-12-18T03:02:07.977Z,1.63
2022-12-18T03:04:44.782Z,1.63
2022-12-18T03:07:19.473Z,1.64
2022-12-18T03:09:51.380Z,1.62
2022-12-18T03:12:25.681Z,1.60
2022-12-18T03:15:18.385Z,1.62
2022-12-18T03:17:58.794Z,1.63
2022-12-18T03:20:31.420Z,1.63
2022-12-18T03:23:14.040Z,1.60
2022-12-18T03:25:45.045Z,1.58
2022-12-18T03:28:19.529Z,1.57
2022-12-18T03:30:49.024Z,1.54
2022-12-18T03:33:27.008Z,1.55
2022-12-18T03:35:55.425Z,1.56
2022-12-18T03:38:23.364Z,1.51
2022-12-18T03:41:16.017Z,1.50
2022-12-18T03:44:25.289Z,1.52
2022-12-18T03:47:20.265Z,1.52
2022-12-18T03:49:56.121Z,1.56
2022-12-18T03:52:29.943Z,1.56
2022-12-18T03:55:00.921Z,1.57
2022-12-18T03:57:32.330Z,1.60
2022-12-18T04:00:07.932Z,1.56
2022-12-18T04:02:45.809Z,1.54
2022-12-18T04:05:17.010Z,1.54
2022-12-18T04:07:47.618Z,1.54
2022-12-18T04:10:17.000Z,1.56
2022-12-18T04:12:44.201Z,1.51
2022-12-18T04:15:13.733Z,1.46
2022-12-18T04:17:48.827Z,1.45
2022-12-18T04:20:18.121Z,1.47
2022-12-18T04:22:45.469Z,1.49
2022-12-18T04:25:14.361Z,1.47
2022-12-18T04:27:53.385Z,1.45
2022-12-18T04:30:20.274Z,1.42
2022-12-18T04:32:52.025Z,1.39
2022-12-18T04:35:20.479Z,1.40
2022-12-18T04:37:47.442Z,1.38
2022-12-18T04:40:15.629Z,1.40
2022-12-18T04:42:45.882Z,1.38
2022-12-18T04:45:12.766Z,1.35
2022-12-18T04:47:39.598Z,1.37
2022-12-18T04:50:07.005Z,1.37
2022-12-18T04:52:34.022Z,1.38
2022-12-18T04:55:00.895Z,1.38
2022-12-18T04:57:27.685Z,1.39
2022-12-18T04:59:54.452Z,1.37
2022-12-18T05:02:21.311Z,1.36
2022-12-18T05:04:48.192Z,1.36
2022-12-18T05:07:14.996Z,1.34
2022-12-18T05:09:41.884Z,1.33
2022-12-18T05:12:08.655Z,1.34
2022-12-18T05:14:35.586Z,1.35
2022-12-18T05:17:02.343Z,1.34
2022-12-18T05:19:29.170Z,1.34
2022-12-18T05:21:55.933Z,1.36
2022-12-18T05:24:22.777Z,1.37
2022-12-18T05:26:49.620Z,1.36
2022-12-18T05:29:16.422Z,1.38
2022-12-18T05:31:43.331Z,1.38
2022-12-18T05:34:10.646Z,1.40
2022-12-18T05:36:38.298Z,1.42
2022-12-18T05:39:05.418Z,1.41
2022-12-18T05:41:32.902Z,1.40
2022-12-18T05:44:00.069Z,1.42
2022-12-18T05:46:27.488Z,1.46
2022-12-18T05:48:54.615Z,1.46
2022-12-18T05:51:23.162Z,1.49
2022-12-18T05:53:50.041Z,1.49
2022-12-18T05:56:22.075Z,1.50
2022-12-18T05:58:53.915Z,1.51
2022-12-18T06:01:24.377Z,1.50
2022-12-18T06:03:51.401Z,1.50
2022-12-18T06:06:26.370Z,1.50
2022-12-18T06:08:54.770Z,1.51
2022-12-18T06:11:24.524Z,1.51
2022-12-18T06:13:58.201Z,1.52
2022-12-18T06:16:25.863Z,1.53
2022-12-18T06:18:52.751Z,1.54
2022-12-18T06:21:22.490Z,1.53
2022-12-18T06:23:49.208Z,1.52
2022-12-18T06:26:16.220Z,1.52
2022-12-18T06:28:43.177Z,1.52
2022-12-18T06:31:13.562Z,1.55
2022-12-18T06:33:41.062Z,1.56
2022-12-18T06:36:13.221Z,1.56
2022-12-18T06:38:43.219Z,1.56
2022-12-18T06:41:15.405Z,1.58
2022-12-18T06:43:43.046Z,1.56
2022-12-18T06:46:10.585Z,1.57
2022-12-18T06:48:37.506Z,1.61
2022-12-18T06:51:04.815Z,1.58
2022-12-18T06:53:33.415Z,1.57
2022-12-18T06:56:09.833Z,1.57
2022-12-18T06:58:37.407Z,1.58
2022-12-18T07:01:09.275Z,1.58
2022-12-18T07:03:36.330Z,1.60
2022-12-18T07:06:03.479Z,1.58
2022-12-18T07:08:31.351Z,1.57
2022-12-18T07:10:58.567Z,1.60
2022-12-18T07:13:25.442Z,1.58
2022-12-18T07:15:52.169Z,1.60
2022-12-18T07:18:19.133Z,1.60
2022-12-18T07:20:45.961Z,1.60
2022-12-18T07:23:14.570Z,1.60
2022-12-18T07:25:41.413Z,1.58
2022-12-18T07:28:11.694Z,1.60
2022-12-18T07:30:42.573Z,1.60
2022-12-18T07:33:09.421Z,1.58
2022-12-18T07:35:37.944Z,1.55
2022-12-18T07:38:04.837Z,1.53
2022-12-18T07:40:31.762Z,1.54
2022-12-18T07:42:58.685Z,1.51
2022-12-18T07:45:25.659Z,1.53
2022-12-18T07:47:52.410Z,1.54
2022-12-18T07:50:19.382Z,1.57
2022-12-18T07:52:46.211Z,1.57
2022-12-18T07:55:13.550Z,1.58
2022-12-18T07:58:00.869Z,1.57
2022-12-18T08:00:27.301Z,1.62
2022-12-18T08:02:54.486Z,1.61
2022-12-18T08:05:21.920Z,1.63
2022-12-18T08:07:48.731Z,1.65
2022-12-18T08:10:15.810Z,1.64
2022-12-18T08:12:42.678Z,1.66
2022-12-18T08:15:09.929Z,1.65
2022-12-18T08:17:36.789Z,1.66
2022-12-18T08:20:04.106Z,1.65
2022-12-18T08:22:31.220Z,1.67
2022-12-18T08:24:58.163Z,1.68
2022-12-18T08:27:29.758Z,1.67
2022-12-18T08:29:57.871Z,1.68
2022-12-18T08:32:26.225Z,1.70
2022-12-18T08:34:53.223Z,1.70
2022-12-18T08:37:20.019Z,1.72
2022-12-18T08:39:46.871Z,1.71
2022-12-18T08:42:32.367Z,1.72
2022-12-18T08:45:03.197Z,1.70
2022-12-18T08:47:30.038Z,1.70
2022-12-18T08:49:56.836Z,1.73
2022-12-18T08:52:23.793Z,1.73
2022-12-18T08:54:50.890Z,1.76
2022-12-18T08:57:17.911Z,1.75
2022-12-18T08:59:44.681Z,1.76
2022-12-18T09:02:12.812Z,1.78
2022-12-18T09:04:41.012Z,1.80
2022-12-18T09:07:08.248Z,1.80
2022-12-18T09:09:35.215Z,1.82
2022-12-18T09:12:02.069Z,1.84
2022-12-18T09:14:28.897Z,1.88
2022-12-18T09:16:56.064Z,1.88
2022-12-18T09:19:22.873Z,1.90
2022-12-18T09:21:49.741Z,1.93
2022-12-18T09:24:17.617Z,1.97
2022-12-18T09:26:47.265Z,1.97
2022-12-18T09:29:16.774Z,2.00
2022-12-18T09:31:45.519Z,2.02
2022-12-18T09:34:12.295Z,2.02
2022-12-18T09:36:39.736Z,2.05
2022-12-18T09:39:08.838Z,2.08
2022-12-18T09:41:38.523Z,2.09
2022-12-18T09:44:23.996Z,2.09
2022-12-18T09:47:11.219Z,2.12
2022-12-18T09:49:45.560Z,2.14
2022-12-18T09:52:30.503Z,2.16
2022-12-18T09:55:07.012Z,2.15
2022-12-18T09:57:40.257Z,2.19
2022-12-18T10:00:20.121Z,2.17
2022-12-18T10:02:48.026Z,2.41
2022-12-18T10:05:18.041Z,2.39
2022-12-18T10:08:01.675Z,2.34
2022-12-18T10:10:28.607Z,2.32
2022-12-18T10:13:04.902Z,2.31
2022-12-18T10:15:31.992Z,2.34
2022-12-18T10:18:04.753Z,2.34
2022-12-18T10:20:39.706Z,2.35
2022-12-18T10:23:15.750Z,2.35
2022-12-18T10:25:59.647Z,2.38
2022-12-18T10:28:27.829Z,2.35
2022-12-18T10:30:54.643Z,2.35
2022-12-18T10:33:24.273Z,2.36
2022-12-18T10:35:52.217Z,2.39
2022-12-18T10:38:18.951Z,2.41
2022-12-18T10:40:57.753Z,2.45
2022-12-18T10:43:34.627Z,2.43
2022-12-18T10:46:09.367Z,2.44
2022-12-18T10:48:48.624Z,2.44
2022-12-18T10:51:24.540Z,2.45
2022-12-18T10:54:20.842Z,2.44
2022-12-18T10:56:48.424Z,2.45
2022-12-18T10:59:17.923Z,2.47
2022-12-18T11:01:56.166Z,2.50
2022-12-18T11:04:29.740Z,2.51
2022-12-18T11:07:02.154Z,2.51
2022-12-18T11:09:32.867Z,2.55
2022-12-18T11:12:03.567Z,2.57
2022-12-18T11:14:34.709Z,2.58
2022-12-18T11:17:24.741Z,2.59
2022-12-18T11:20:00.644Z,2.62
2022-12-18T11:22:33.583Z,2.62
2022-12-18T11:27:59.183Z,2.64
2022-12-18T11:30:32.006Z,2.67
2022-12-18T11:33:05.596Z,2.67
2022-12-18T11:35:47.500Z,2.67
2022-12-18T11:38:27.219Z,2.72
2022-12-18T11:41:17.322Z,2.72
2022-12-18T11:43:54.023Z,2.72
2022-12-18T11:46:44.546Z,2.71
2022-12-18T11:49:21.774Z,2.73
2022-12-18T11:51:58.765Z,2.73
2022-12-18T11:54:25.949Z,2.73
2022-12-18T11:57:06.100Z,2.74
2022-12-18T12:00:07.619Z,2.75
2022-12-18T12:03:16.529Z,2.78
2022-12-18T12:06:07.015Z,2.78
2022-12-18T12:08:59.543Z,2.83
2022-12-18T12:11:44.923Z,2.82
2022-12-18T12:14:36.222Z,2.84
2022-12-18T12:17:12.078Z,2.81
2022-12-18T12:19:41.935Z,2.82
2022-12-18T12:22:53.193Z,2.81
2022-12-18T12:25:27.807Z,2.83
2022-12-18T12:28:05.311Z,2.83
2022-12-18T12:30:42.588Z,2.84
2022-12-18T12:33:18.325Z,2.84
2022-12-18T12:36:03.617Z,2.84
2022-12-18T12:38:51.650Z,2.86
2022-12-18T12:41:42.165Z,2.88
2022-12-18T12:44:17.878Z,2.86
2022-12-18T12:46:45.373Z,2.89
2022-12-18T12:49:18.556Z,2.89
2022-12-18T12:51:53.347Z,2.91
2022-12-18T12:54:23.240Z,2.90
2022-12-18T12:56:59.757Z,2.93
2022-12-18T12:59:33.886Z,2.96
2022-12-18T13:02:24.549Z,3.00
2022-12-18T13:05:07.685Z,2.98
2022-12-18T13:07:52.615Z,2.99
2022-12-18T13:10:23.843Z,2.98
2022-12-18T13:12:57.839Z,2.99
2022-12-18T13:15:44.349Z,2.98
2022-12-18T13:18:22.117Z,2.99
2022-12-18T13:21:04.005Z,3.00
2022-12-18T13:23:40.274Z,3.01
2022-12-18T13:26:09.207Z,3.01
2022-12-18T13:28:48.521Z,3.02
2022-12-18T13:31:34.900Z,3.02
2022-12-18T13:34:26.081Z,3.02
2022-12-18T13:36:56.619Z,3.03
2022-12-18T13:39:34.866Z,3.03
2022-12-18T13:42:08.768Z,3.02
2022-12-18T13:44:42.594Z,3.03
2022-12-18T13:47:36.906Z,3.05
2022-12-18T13:50:35.905Z,3.04
2022-12-18T13:53:06.232Z,3.09
2022-12-18T13:55:33.842Z,3.08
2022-12-18T13:58:08.767Z,3.11
2022-12-18T14:00:36.193Z,3.11
2022-12-18T14:03:03.434Z,3.11
2022-12-18T14:05:32.237Z,3.08
2022-12-18T14:08:09.972Z,3.11
2022-12-18T14:10:48.930Z,3.09
2022-12-18T14:13:38.437Z,3.09
2022-12-18T14:16:08.547Z,3.08
2022-12-18T14:19:06.083Z,3.12
2022-12-18T14:21:47.498Z,3.10
2022-12-18T14:24:19.470Z,3.15
2022-12-18T14:26:48.258Z,3.16
2022-12-18T14:29:25.964Z,3.13
2022-12-18T14:32:08.387Z,3.14
2022-12-18T14:34:37.550Z,3.21
2022-12-18T14:37:05.247Z,3.26
2022-12-18T14:39:32.126Z,3.24
2022-12-18T14:41:58.974Z,3.24
2022-12-18T14:44:28.623Z,3.19
2022-12-18T14:47:05.052Z,3.18
2022-12-18T14:49:34.914Z,3.18
2022-12-18T14:52:08.226Z,3.19
2022-12-18T14:54:38.269Z,3.20
2022-12-18T14:57:23.572Z,3.20
2022-12-18T14:59:51.364Z,3.24
2022-12-18T15:02:29.008Z,3.24
2022-12-18T15:05:14.573Z,3.27
2022-12-18T15:07:50.658Z,3.28
2022-12-18T15:10:17.580Z,3.29
2022-12-18T15:12:48.672Z,3.26
2022-12-18T15:15:34.226Z,3.27
2022-12-18T15:18:02.846Z,3.27
2022-12-18T15:20:33.192Z,3.30
2022-12-18T15:23:00.225Z,3.29
2022-12-18T15:25:29.748Z,3.29
2022-12-18T15:27:56.675Z,3.32
2022-12-18T15:30:24.833Z,3.33
2022-12-18T15:32:53.843Z,3.32
2022-12-18T15:35:25.614Z,3.32
2022-12-18T15:37:53.578Z,3.34
2022-12-18T15:40:23.496Z,3.33
2022-12-18T15:43:12.277Z,3.38
2022-12-18T15:45:39.210Z,3.35
2022-12-18T15:48:20.554Z,3.39
2022-12-18T15:50:47.525Z,3.40
2022-12-18T15:53:14.949Z,3.44
2022-12-18T15:56:01.275Z,3.47
2022-12-18T15:58:28.452Z,3.43
2022-12-18T16:00:57.312Z,3.45
2022-12-18T16:03:24.395Z,3.45
2022-12-18T16:05:52.496Z,3.47
2022-12-18T16:08:19.566Z,3.47
2022-12-18T16:10:46.775Z,3.49
2022-12-18T16:13:19.412Z,3.48
2022-12-18T16:15:46.412Z,3.50
2022-12-18T16:18:13.325Z,3.49
2022-12-18T16:20:40.621Z,3.54
2022-12-18T16:23:07.852Z,3.54
2022-12-18T16:25:34.869Z,3.59
2022-12-18T16:28:01.782Z,3.60
2022-12-18T16:30:32.741Z,3.60
2022-12-18T16:33:04.955Z,3.61
2022-12-18T16:35:31.865Z,3.56
2022-12-18T16:37:58.745Z,3.61
2022-12-18T16:40:26.028Z,3.57
2022-12-18T16:42:53.214Z,3.58
2022-12-18T16:45:20.208Z,3.59
2022-12-18T16:47:47.185Z,3.65
2022-12-18T16:50:14.480Z,3.64
2022-12-18T16:52:41.657Z,3.64
2022-12-18T16:55:09.249Z,3.68
2022-12-18T16:57:36.453Z,3.63
2022-12-18T17:00:06.021Z,3.64
2022-12-18T17:02:33.985Z,3.65
2022-12-18T17:05:01.442Z,3.67
2022-12-18T17:07:29.214Z,3.67
2022-12-18T17:09:56.389Z,3.69
2022-12-18T17:12:23.659Z,3.71
2022-12-18T17:14:50.698Z,3.80
2022-12-18T17:17:22.692Z,3.82
2022-12-18T17:19:50.684Z,3.79
2022-12-18T17:22:17.606Z,3.80
2022-12-18T17:24:44.678Z,3.79
2022-12-18T17:27:11.654Z,3.80
2022-12-18T17:29:43.874Z,3.79
2022-12-18T17:32:13.791Z,3.79
2022-12-18T17:34:40.867Z,3.83
2022-12-18T17:37:08.371Z,3.78
2022-12-18T17:39:35.215Z,3.80
2022-12-18T17:42:02.117Z,3.85
2022-12-18T17:44:28.974Z,3.85
2022-12-18T17:46:56.170Z,3.85
2022-12-18T17:49:23.145Z,3.86
2022-12-18T17:51:50.143Z,3.84
2022-12-18T17:54:17.115Z,3.87
2022-12-18T17:56:44.146Z,3.87
2022-12-18T17:59:11.958Z,3.89
2022-12-18T18:01:44.510Z,3.98
2022-12-18T18:04:13.322Z,3.93
2022-12-18T18:06:40.561Z,3.92
2022-12-18T18:09:15.273Z,3.91
2022-12-18T18:12:03.394Z,3.90
2022-12-18T18:14:30.614Z,3.94
2022-12-18T18:17:04.420Z,3.93
2022-12-18T18:19:33.133Z,3.94
2022-12-18T18:22:00.158Z,3.98
2022-12-18T18:24:27.392Z,3.98
2022-12-18T18:26:59.659Z,4.02
2022-12-18T18:29:28.868Z,4.00
2022-12-18T18:31:56.388Z,4.00
2022-12-18T18:34:25.973Z,4.04
2022-12-18T18:36:52.998Z,4.03
2022-12-18T18:39:20.212Z,4.04
2022-12-18T18:41:48.260Z,4.06
2022-12-18T18:44:16.990Z,4.03
2022-12-18T18:46:44.355Z,4.05
2022-12-18T18:49:11.642Z,4.06
2022-12-18T18:51:40.595Z,4.06
2022-12-18T18:54:10.385Z,4.07
2022-12-18T18:57:04.057Z,4.07
2022-12-18T18:59:31.238Z,4.10
2022-12-18T19:02:00.690Z,4.09
2022-12-18T19:04:31.725Z,4.14
2022-12-18T19:06:58.609Z,4.13
2022-12-18T19:09:26.555Z,4.17
2022-12-18T19:12:12.318Z,4.15
2022-12-18T19:14:39.445Z,4.19
2022-12-18T19:17:06.345Z,4.18
2022-12-18T19:19:34.196Z,4.24
2022-12-18T19:22:01.415Z,4.24
2022-12-18T19:24:28.386Z,4.27
2022-12-18T19:26:56.858Z,4.23
2022-12-18T19:29:25.521Z,4.26
2022-12-18T19:31:52.680Z,4.23
2022-12-18T19:34:19.800Z,4.23
2022-12-18T19:36:46.708Z,4.26
2022-12-18T19:39:16.695Z,4.26
2022-12-18T19:41:44.355Z,4.28
2022-12-18T19:44:13.764Z,4.28
2022-12-18T19:46:42.319Z,4.30
2022-12-18T19:49:11.047Z,4.32
2022-12-18T19:51:38.472Z,4.33
2022-12-18T19:54:12.065Z,4.37
2022-12-18T19:56:43.451Z,4.35
2022-12-18T19:59:10.337Z,4.33
2022-12-18T20:01:37.519Z,4.35
2022-12-18T20:04:05.010Z,4.38
2022-12-18T20:06:46.562Z,4.41
2022-12-18T20:09:13.747Z,4.39
2022-12-18T20:11:41.321Z,4.41
2022-12-18T20:14:12.911Z,4.43
2022-12-18T20:16:40.642Z,4.45
2022-12-18T20:19:08.582Z,4.42
2022-12-18T20:21:36.998Z,4.44
2022-12-18T20:24:04.110Z,4.49
2022-12-18T20:26:31.132Z,4.49
2022-12-18T20:28:58.213Z,4.47
2022-12-18T20:31:25.297Z,4.54
2022-12-18T20:33:53.353Z,4.52
2022-12-18T20:36:23.372Z,4.51
2022-12-18T20:38:58.139Z,4.51
2022-12-18T20:41:31.607Z,4.54
2022-12-18T20:44:09.858Z,4.52
2022-12-18T20:46:50.869Z,4.56
2022-12-18T20:49:17.659Z,4.57
2022-12-18T20:51:44.637Z,4.58
2022-12-18T20:54:12.061Z,4.62
2022-12-18T20:56:39.246Z,4.64
2022-12-18T20:59:06.394Z,4.63
2022-12-18T21:01:33.520Z,4.60
2022-12-18T21:04:02.466Z,4.61
2022-12-18T21:06:29.695Z,4.63
2022-12-18T21:08:56.931Z,4.62
2022-12-18T21:11:51.063Z,4.65
2022-12-18T21:14:21.845Z,4.67
2022-12-18T21:16:50.100Z,4.68
2022-12-18T21:19:23.287Z,4.67
2022-12-18T21:21:51.915Z,4.69
2022-12-18T21:24:19.673Z,4.71
2022-12-18T21:26:47.998Z,4.71
2022-12-18T21:29:23.424Z,4.74
2022-12-18T21:31:51.815Z,4.73
2022-12-18T21:34:29.307Z,4.75
2022-12-18T21:36:58.553Z,4.73
2022-12-18T21:39:27.196Z,4.76
2022-12-18T21:42:12.955Z,4.76
2022-12-18T21:44:42.008Z,4.76
2022-12-18T21:47:17.610Z,4.80
2022-12-18T21:49:49.579Z,4.81
2022-12-18T21:52:17.023Z,4.77
2022-12-18T21:54:44.161Z,4.81
2022-12-18T21:57:11.155Z,4.79
2022-12-18T21:59:40.901Z,4.79
2022-12-18T22:02:12.346Z,4.80
2022-12-18T22:04:39.861Z,4.84
2022-12-18T22:07:07.405Z,4.84
2022-12-18T22:09:34.738Z,4.83
2022-12-18T22:12:02.058Z,4.83
2022-12-18T22:14:29.435Z,4.83
2022-12-18T22:16:57.464Z,4.84
2022-12-18T22:19:25.676Z,4.88
2022-12-18T22:21:53.443Z,4.90
2022-12-18T22:24:25.624Z,4.90
2022-12-18T22:26:56.205Z,4.93
2022-12-18T22:29:47.840Z,4.92
2022-12-18T22:32:22.105Z,4.94
2022-12-18T22:35:07.972Z,4.90
2022-12-18T22:37:37.102Z,4.91
2022-12-18T22:40:06.065Z,4.95
2022-12-18T22:42:34.403Z,4.90
2022-12-18T22:45:01.412Z,4.91
2022-12-18T22:47:30.423Z,4.91
2022-12-18T22:49:58.420Z,4.93
2022-12-18T22:52:25.539Z,4.95
2022-12-18T22:54:54.055Z,4.96
2022-12-18T22:57:22.870Z,4.97
2022-12-18T22:59:50.464Z,4.98
2022-12-18T23:02:20.560Z,5.03
2022-12-18T23:04:47.883Z,5.04
2022-12-18T23:07:15.470Z,5.03
2022-12-18T23:09:42.971Z,5.03
2022-12-18T23:12:19.299Z,5.03
2022-12-18T23:14:47.370Z,5.06
2022-12-18T23:17:14.349Z,5.07
2022-12-18T23:19:47.116Z,5.07
2022-12-18T23:22:16.059Z,5.08
2022-12-18T23:24:42.982Z,5.04
2022-12-18T23:27:11.784Z,5.06
2022-12-18T23:29:39.900Z,5.09
2022-12-18T23:32:07.600Z,5.09
2022-12-18T23:34:34.866Z,5.10
2022-12-18T23:37:03.685Z,5.13
2022-12-18T23:39:30.634Z,5.15
2022-12-18T23:41:58.421Z,5.12
2022-12-18T23:44:25.479Z,5.13
2022-12-18T23:46:52.863Z,5.13
2022-12-18T23:49:19.856Z,5.16
2022-12-18T23:51:46.777Z,5.16
2022-12-18T23:54:13.684Z,5.17
2022-12-18T23:56:40.922Z,5.17
2022-12-18T23:59:07.848Z,5.18
